Terminal Aerodrome Forecast
Issued by NWS

Current Version | Previous Version | Text Only | Print | Product List | Glossary On
Versions: 1 2 3 4 5 6 7 8 9 10 11 12 13 14 15 16 17 18 19 20 21 22 23 24
000
FTUS43 KABR 051120 AAA
TAFPIR
TAF AMD
KPIR 051120Z 0511/0612 VRB06KT P6SM BKN200
     FM051800 30021G30KT P6SM VCSH BKN025
     FM052000 31026G38KT P6SM VCSH BKN015
     FM052100 30027G40KT P6SM BKN015
     FM052300 30028G39KT P6SM BKN050
     FM060300 30019G28KT P6SM BKN045
     FM060500 30019G26KT P6SM BKN025
     FM060600 30019G26KT P6SM BKN040
     FM061100 29017G25KT P6SM SCT060=

USA.gov is the U.S. government's official web portal to all federal, state and local government web resources and services.